sensor_id;sensor_type;location;lat;lon;timestamp;P1;durP1;ratioP1;P2;durP2;ratioP2
4274;SDS011;2151;50.988;11.068;2023-02-15T00:00:42;149.37;;;16.83;;
4274;SDS011;2151;50.988;11.068;2023-02-15T00:03:09;149.20;;;16.90;;
4274;SDS011;2151;50.988;11.068;2023-02-15T00:05:35;149.67;;;17.00;;
4274;SDS011;2151;50.988;11.068;2023-02-15T00:08:02;149.80;;;17.07;;
4274;SDS011;2151;50.988;11.068;2023-02-15T00:10:28;151.93;;;17.30;;
4274;SDS011;2151;50.988;11.068;2023-02-15T00:12:55;156.10;;;19.17;;
4274;SDS011;2151;50.988;11.068;2023-02-15T00:15:21;157.23;;;18.23;;
4274;SDS011;2151;50.988;11.068;2023-02-15T00:17:47;148.47;;;16.20;;
4274;SDS011;2151;50.988;11.068;2023-02-15T00:20:14;149.90;;;17.33;;
4274;SDS011;2151;50.988;11.068;2023-02-15T00:22:41;149.47;;;17.53;;
4274;SDS011;2151;50.988;11.068;2023-02-15T00:25:08;147.33;;;15.50;;
4274;SDS011;2151;50.988;11.068;2023-02-15T00:27:34;151.40;;;17.37;;
4274;SDS011;2151;50.988;11.068;2023-02-15T00:30:00;147.70;;;16.53;;
4274;SDS011;2151;50.988;11.068;2023-02-15T00:32:27;150.97;;;17.03;;
4274;SDS011;2151;50.988;11.068;2023-02-15T00:34:53;153.87;;;16.27;;
4274;SDS011;2151;50.988;11.068;2023-02-15T00:37:20;149.00;;;16.07;;
4274;SDS011;2151;50.988;11.068;2023-02-15T00:39:46;151.67;;;18.90;;
4274;SDS011;2151;50.988;11.068;2023-02-15T00:42:12;157.37;;;18.63;;
4274;SDS011;2151;50.988;11.068;2023-02-15T00:44:39;150.67;;;17.10;;
4274;SDS011;2151;50.988;11.068;2023-02-15T00:47:05;153.13;;;17.13;;
4274;SDS011;2151;50.988;11.068;2023-02-15T00:49:32;173.00;;;17.70;;
4274;SDS011;2151;50.988;11.068;2023-02-15T00:51:58;151.90;;;15.40;;
4274;SDS011;2151;50.988;11.068;2023-02-15T00:54:24;155.27;;;17.67;;
4274;SDS011;2151;50.988;11.068;2023-02-15T00:56:51;150.60;;;16.13;;
4274;SDS011;2151;50.988;11.068;2023-02-15T00:59:17;147.30;;;15.93;;
4274;SDS011;2151;50.988;11.068;2023-02-15T01:01:43;148.17;;;16.97;;
4274;SDS011;2151;50.988;11.068;2023-02-15T01:04:10;145.07;;;14.90;;
4274;SDS011;2151;50.988;11.068;2023-02-15T01:06:36;148.17;;;16.40;;
4274;SDS011;2151;50.988;11.068;2023-02-15T01:09:03;146.67;;;15.73;;
4274;SDS011;2151;50.988;11.068;2023-02-15T01:11:29;144.77;;;14.30;;
4274;SDS011;2151;50.988;11.068;2023-02-15T01:13:56;143.87;;;14.03;;
4274;SDS011;2151;50.988;11.068;2023-02-15T01:16:24;141.57;;;14.13;;
4274;SDS011;2151;50.988;11.068;2023-02-15T01:18:51;144.60;;;13.77;;
4274;SDS011;2151;50.988;11.068;2023-02-15T01:21:19;140.77;;;13.10;;
4274;SDS011;2151;50.988;11.068;2023-02-15T01:23:45;144.50;;;13.30;;
4274;SDS011;2151;50.988;11.068;2023-02-15T01:26:12;142.40;;;13.37;;
4274;SDS011;2151;50.988;11.068;2023-02-15T01:28:38;142.07;;;13.13;;
4274;SDS011;2151;50.988;11.068;2023-02-15T01:31:06;143.53;;;13.13;;
4274;SDS011;2151;50.988;11.068;2023-02-15T01:33:33;140.53;;;12.53;;
4274;SDS011;2151;50.988;11.068;2023-02-15T01:35:59;145.20;;;13.77;;
4274;SDS011;2151;50.988;11.068;2023-02-15T01:38:26;143.17;;;13.43;;
4274;SDS011;2151;50.988;11.068;2023-02-15T01:40:52;143.27;;;13.63;;
4274;SDS011;2151;50.988;11.068;2023-02-15T01:43:19;143.83;;;13.40;;
4274;SDS011;2151;50.988;11.068;2023-02-15T01:45:46;145.97;;;14.53;;
4274;SDS011;2151;50.988;11.068;2023-02-15T01:50:44;142.67;;;14.63;;
4274;SDS011;2151;50.988;11.068;2023-02-15T01:58:26;145.33;;;14.40;;
4274;SDS011;2151;50.988;11.068;2023-02-15T02:00:53;160.10;;;14.90;;
4274;SDS011;2151;50.988;11.068;2023-02-15T02:03:39;147.97;;;14.03;;
4274;SDS011;2151;50.988;11.068;2023-02-15T02:06:08;147.30;;;14.40;;
4274;SDS011;2151;50.988;11.068;2023-02-15T02:08:35;145.03;;;14.47;;
4274;SDS011;2151;50.988;11.068;2023-02-15T02:11:02;144.63;;;13.90;;
4274;SDS011;2151;50.988;11.068;2023-02-15T02:13:28;144.67;;;14.03;;
4274;SDS011;2151;50.988;11.068;2023-02-15T02:16:00;146.63;;;13.47;;
4274;SDS011;2151;50.988;11.068;2023-02-15T02:18:33;140.83;;;12.60;;
4274;SDS011;2151;50.988;11.068;2023-02-15T02:44:16;140.07;;;11.80;;
4274;SDS011;2151;50.988;11.068;2023-02-15T02:49:30;140.27;;;10.97;;
4274;SDS011;2151;50.988;11.068;2023-02-15T02:51:58;139.33;;;10.97;;
4274;SDS011;2151;50.988;11.068;2023-02-15T02:54:24;140.00;;;11.40;;
4274;SDS011;2151;50.988;11.068;2023-02-15T02:56:50;141.87;;;12.17;;
4274;SDS011;2151;50.988;11.068;2023-02-15T02:59:21;137.33;;;10.00;;
4274;SDS011;2151;50.988;11.068;2023-02-15T03:01:58;138.73;;;10.87;;
4274;SDS011;2151;50.988;11.068;2023-02-15T03:04:30;141.23;;;11.80;;
4274;SDS011;2151;50.988;11.068;2023-02-15T03:07:01;141.17;;;11.97;;
4274;SDS011;2151;50.988;11.068;2023-02-15T03:12:08;141.80;;;11.07;;
4274;SDS011;2151;50.988;11.068;2023-02-15T03:14:35;141.07;;;11.73;;
4274;SDS011;2151;50.988;11.068;2023-02-15T03:17:02;139.37;;;11.27;;
4274;SDS011;2151;50.988;11.068;2023-02-15T03:19:31;140.70;;;10.70;;
4274;SDS011;2151;50.988;11.068;2023-02-15T03:22:00;141.23;;;11.80;;
4274;SDS011;2151;50.988;11.068;2023-02-15T03:24:42;142.77;;;12.40;;
4274;SDS011;2151;50.988;11.068;2023-02-15T03:27:11;140.27;;;11.43;;
4274;SDS011;2151;50.988;11.068;2023-02-15T03:29:46;140.30;;;11.03;;
4274;SDS011;2151;50.988;11.068;2023-02-15T03:32:15;145.30;;;12.07;;
4274;SDS011;2151;50.988;11.068;2023-02-15T03:34:42;137.60;;;10.03;;
4274;SDS011;2151;50.988;11.068;2023-02-15T03:45:33;151.90;;;14.68;;
4274;SDS011;2151;50.988;11.068;2023-02-15T03:48:01;140.37;;;11.80;;
4274;SDS011;2151;50.988;11.068;2023-02-15T03:50:30;141.83;;;11.97;;
4274;SDS011;2151;50.988;11.068;2023-02-15T03:53:17;142.40;;;11.60;;
4274;SDS011;2151;50.988;11.068;2023-02-15T03:55:52;142.63;;;11.73;;
4274;SDS011;2151;50.988;11.068;2023-02-15T03:58:19;141.57;;;11.20;;
4274;SDS011;2151;50.988;11.068;2023-02-15T04:01:05;142.90;;;11.30;;
4274;SDS011;2151;50.988;11.068;2023-02-15T04:06:20;147.27;;;12.03;;
4274;SDS011;2151;50.988;11.068;2023-02-15T04:08:46;141.97;;;12.30;;
4274;SDS011;2151;50.988;11.068;2023-02-15T04:11:31;142.50;;;11.47;;
4274;SDS011;2151;50.988;11.068;2023-02-15T04:13:58;140.43;;;11.80;;
4274;SDS011;2151;50.988;11.068;2023-02-15T04:16:24;140.30;;;11.47;;
4274;SDS011;2151;50.988;11.068;2023-02-15T04:18:51;139.33;;;11.00;;
4274;SDS011;2151;50.988;11.068;2023-02-15T04:21:36;141.60;;;11.93;;
4274;SDS011;2151;50.988;11.068;2023-02-15T04:24:21;144.80;;;12.83;;
4274;SDS011;2151;50.988;11.068;2023-02-15T04:27:06;140.70;;;11.60;;
4274;SDS011;2151;50.988;11.068;2023-02-15T04:29:32;139.63;;;11.70;;
4274;SDS011;2151;50.988;11.068;2023-02-15T04:31:59;141.30;;;12.00;;
4274;SDS011;2151;50.988;11.068;2023-02-15T04:34:26;142.20;;;11.23;;
4274;SDS011;2151;50.988;11.068;2023-02-15T04:36:52;139.37;;;11.60;;
4274;SDS011;2151;50.988;11.068;2023-02-15T04:39:18;141.07;;;11.87;;
4274;SDS011;2151;50.988;11.068;2023-02-15T04:41:45;142.97;;;11.83;;
4274;SDS011;2151;50.988;11.068;2023-02-15T04:44:11;140.43;;;11.80;;
4274;SDS011;2151;50.988;11.068;2023-02-15T04:46:38;140.07;;;12.03;;
4274;SDS011;2151;50.988;11.068;2023-02-15T04:49:04;142.90;;;12.40;;
4274;SDS011;2151;50.988;11.068;2023-02-15T04:51:31;142.77;;;12.73;;
4274;SDS011;2151;50.988;11.068;2023-02-15T04:53:57;140.27;;;12.30;;
4274;SDS011;2151;50.988;11.068;2023-02-15T04:56:24;143.93;;;12.80;;
4274;SDS011;2151;50.988;11.068;2023-02-15T04:58:50;141.37;;;12.50;;
4274;SDS011;2151;50.988;11.068;2023-02-15T05:01:16;143.90;;;12.60;;
4274;SDS011;2151;50.988;11.068;2023-02-15T05:03:43;142.33;;;12.30;;
4274;SDS011;2151;50.988;11.068;2023-02-15T05:06:09;140.13;;;11.90;;
4274;SDS011;2151;50.988;11.068;2023-02-15T05:08:36;143.00;;;12.80;;
4274;SDS011;2151;50.988;11.068;2023-02-15T05:11:02;142.50;;;13.07;;
4274;SDS011;2151;50.988;11.068;2023-02-15T05:13:28;141.40;;;12.23;;
4274;SDS011;2151;50.988;11.068;2023-02-15T05:15:55;145.80;;;13.10;;
4274;SDS011;2151;50.988;11.068;2023-02-15T05:18:21;148.83;;;13.83;;
4274;SDS011;2151;50.988;11.068;2023-02-15T05:20:48;145.50;;;12.80;;
4274;SDS011;2151;50.988;11.068;2023-02-15T05:23:14;152.80;;;13.77;;
4274;SDS011;2151;50.988;11.068;2023-02-15T05:25:41;149.57;;;13.13;;
4274;SDS011;2151;50.988;11.068;2023-02-15T05:28:30;143.90;;;12.97;;
4274;SDS011;2151;50.988;11.068;2023-02-15T05:33:23;145.10;;;12.20;;
4274;SDS011;2151;50.988;11.068;2023-02-15T05:35:50;141.30;;;12.90;;
4274;SDS011;2151;50.988;11.068;2023-02-15T05:38:17;141.63;;;12.70;;
4274;SDS011;2151;50.988;11.068;2023-02-15T05:40:43;143.60;;;12.10;;
4274;SDS011;2151;50.988;11.068;2023-02-15T05:43:10;167.50;;;13.97;;
4274;SDS011;2151;50.988;11.068;2023-02-15T05:45:36;176.43;;;13.87;;
4274;SDS011;2151;50.988;11.068;2023-02-15T05:48:03;166.03;;;14.43;;
4274;SDS011;2151;50.988;11.068;2023-02-15T05:50:30;153.83;;;12.67;;
4274;SDS011;2151;50.988;11.068;2023-02-15T05:52:56;147.27;;;12.20;;
4274;SDS011;2151;50.988;11.068;2023-02-15T05:55:23;156.23;;;13.27;;
4274;SDS011;2151;50.988;11.068;2023-02-15T05:57:49;153.67;;;13.03;;
4274;SDS011;2151;50.988;11.068;2023-02-15T06:00:15;144.00;;;12.70;;
4274;SDS011;2151;50.988;11.068;2023-02-15T06:02:42;152.57;;;12.20;;
4274;SDS011;2151;50.988;11.068;2023-02-15T06:05:08;148.10;;;11.83;;
4274;SDS011;2151;50.988;11.068;2023-02-15T06:07:35;146.17;;;12.73;;
4274;SDS011;2151;50.988;11.068;2023-02-15T06:10:02;154.77;;;11.80;;
4274;SDS011;2151;50.988;11.068;2023-02-15T06:12:28;148.37;;;12.70;;
4274;SDS011;2151;50.988;11.068;2023-02-15T06:14:55;148.80;;;11.70;;
4274;SDS011;2151;50.988;11.068;2023-02-15T06:17:21;140.27;;;11.10;;
4274;SDS011;2151;50.988;11.068;2023-02-15T06:19:48;140.57;;;11.90;;
4274;SDS011;2151;50.988;11.068;2023-02-15T06:22:14;139.87;;;11.23;;
4274;SDS011;2151;50.988;11.068;2023-02-15T06:24:41;138.20;;;10.50;;
4274;SDS011;2151;50.988;11.068;2023-02-15T06:27:09;139.63;;;10.40;;
4274;SDS011;2151;50.988;11.068;2023-02-15T06:29:36;139.37;;;10.63;;
4274;SDS011;2151;50.988;11.068;2023-02-15T06:32:02;139.60;;;11.07;;
4274;SDS011;2151;50.988;11.068;2023-02-15T06:34:29;138.97;;;11.03;;
4274;SDS011;2151;50.988;11.068;2023-02-15T06:36:56;141.23;;;12.47;;
4274;SDS011;2151;50.988;11.068;2023-02-15T06:39:22;138.73;;;11.30;;
4274;SDS011;2151;50.988;11.068;2023-02-15T06:41:49;140.47;;;11.40;;
4274;SDS011;2151;50.988;11.068;2023-02-15T06:44:15;138.27;;;10.93;;
4274;SDS011;2151;50.988;11.068;2023-02-15T06:46:42;138.97;;;10.60;;
4274;SDS011;2151;50.988;11.068;2023-02-15T06:49:08;139.43;;;10.93;;
4274;SDS011;2151;50.988;11.068;2023-02-15T06:51:35;141.57;;;11.90;;
4274;SDS011;2151;50.988;11.068;2023-02-15T06:54:01;145.23;;;12.90;;
4274;SDS011;2151;50.988;11.068;2023-02-15T06:56:28;140.50;;;12.17;;
4274;SDS011;2151;50.988;11.068;2023-02-15T06:58:54;139.87;;;11.50;;
4274;SDS011;2151;50.988;11.068;2023-02-15T07:01:20;141.20;;;11.83;;
4274;SDS011;2151;50.988;11.068;2023-02-15T07:03:47;142.27;;;11.97;;
4274;SDS011;2151;50.988;11.068;2023-02-15T07:06:13;138.67;;;11.33;;
4274;SDS011;2151;50.988;11.068;2023-02-15T07:08:40;144.17;;;11.57;;
4274;SDS011;2151;50.988;11.068;2023-02-15T07:11:06;139.80;;;11.03;;
4274;SDS011;2151;50.988;11.068;2023-02-15T07:13:52;138.77;;;10.77;;
4274;SDS011;2151;50.988;11.068;2023-02-15T07:16:19;138.80;;;10.57;;
4274;SDS011;2151;50.988;11.068;2023-02-15T07:18:45;140.27;;;11.13;;
4274;SDS011;2151;50.988;11.068;2023-02-15T07:21:12;138.60;;;10.80;;
4274;SDS011;2151;50.988;11.068;2023-02-15T07:23:39;138.73;;;10.60;;
4274;SDS011;2151;50.988;11.068;2023-02-15T07:26:06;140.30;;;10.93;;
4274;SDS011;2151;50.988;11.068;2023-02-15T07:28:33;140.50;;;10.70;;
4274;SDS011;2151;50.988;11.068;2023-02-15T07:31:03;141.67;;;11.80;;
4274;SDS011;2151;50.988;11.068;2023-02-15T07:33:30;141.47;;;11.30;;
4274;SDS011;2151;50.988;11.068;2023-02-15T07:35:57;139.50;;;11.00;;
4274;SDS011;2151;50.988;11.068;2023-02-15T07:38:24;138.60;;;11.17;;
4274;SDS011;2151;50.988;11.068;2023-02-15T07:40:51;139.87;;;11.30;;
4274;SDS011;2151;50.988;11.068;2023-02-15T07:43:17;140.60;;;11.87;;
4274;SDS011;2151;50.988;11.068;2023-02-15T07:45:44;139.00;;;10.67;;
4274;SDS011;2151;50.988;11.068;2023-02-15T07:48:10;138.13;;;10.70;;
4274;SDS011;2151;50.988;11.068;2023-02-15T07:50:37;137.47;;;10.07;;
4274;SDS011;2151;50.988;11.068;2023-02-15T07:53:03;143.43;;;10.43;;
4274;SDS011;2151;50.988;11.068;2023-02-15T07:55:29;138.87;;;9.57;;
4274;SDS011;2151;50.988;11.068;2023-02-15T07:57:56;138.17;;;10.40;;
4274;SDS011;2151;50.988;11.068;2023-02-15T08:00:23;138.67;;;10.43;;
4274;SDS011;2151;50.988;11.068;2023-02-15T08:02:52;140.17;;;11.00;;
4274;SDS011;2151;50.988;11.068;2023-02-15T08:05:37;137.97;;;10.37;;
4274;SDS011;2151;50.988;11.068;2023-02-15T08:08:04;140.77;;;10.80;;
4274;SDS011;2151;50.988;11.068;2023-02-15T08:10:30;138.57;;;10.40;;
4274;SDS011;2151;50.988;11.068;2023-02-15T08:13:15;138.73;;;10.43;;
4274;SDS011;2151;50.988;11.068;2023-02-15T08:15:51;141.17;;;11.67;;
4274;SDS011;2151;50.988;11.068;2023-02-15T08:18:17;138.20;;;11.10;;
4274;SDS011;2151;50.988;11.068;2023-02-15T08:20:48;140.17;;;11.37;;
4274;SDS011;2151;50.988;11.068;2023-02-15T08:23:14;139.47;;;10.50;;
4274;SDS011;2151;50.988;11.068;2023-02-15T08:25:41;139.40;;;11.80;;
4274;SDS011;2151;50.988;11.068;2023-02-15T08:28:07;140.07;;;11.10;;
4274;SDS011;2151;50.988;11.068;2023-02-15T08:30:34;140.90;;;11.10;;
4274;SDS011;2151;50.988;11.068;2023-02-15T08:33:02;139.20;;;11.13;;
4274;SDS011;2151;50.988;11.068;2023-02-15T08:35:28;139.37;;;10.33;;
4274;SDS011;2151;50.988;11.068;2023-02-15T08:37:54;139.20;;;10.77;;
4274;SDS011;2151;50.988;11.068;2023-02-15T08:40:21;140.40;;;11.27;;
4274;SDS011;2151;50.988;11.068;2023-02-15T08:42:48;137.87;;;10.40;;
4274;SDS011;2151;50.988;11.068;2023-02-15T08:45:14;141.03;;;10.40;;
4274;SDS011;2151;50.988;11.068;2023-02-15T08:47:40;139.67;;;9.80;;
4274;SDS011;2151;50.988;11.068;2023-02-15T08:50:07;140.40;;;11.83;;
4274;SDS011;2151;50.988;11.068;2023-02-15T08:52:34;139.60;;;11.27;;
4274;SDS011;2151;50.988;11.068;2023-02-15T08:55:00;139.37;;;11.10;;
4274;SDS011;2151;50.988;11.068;2023-02-15T08:57:26;142.03;;;11.77;;
4274;SDS011;2151;50.988;11.068;2023-02-15T08:59:53;138.70;;;11.37;;
4274;SDS011;2151;50.988;11.068;2023-02-15T09:02:21;138.60;;;11.77;;
4274;SDS011;2151;50.988;11.068;2023-02-15T09:04:47;138.43;;;10.50;;
4274;SDS011;2151;50.988;11.068;2023-02-15T09:07:13;139.13;;;12.10;;
4274;SDS011;2151;50.988;11.068;2023-02-15T09:09:40;139.07;;;11.90;;
4274;SDS011;2151;50.988;11.068;2023-02-15T09:12:06;140.80;;;11.80;;
4274;SDS011;2151;50.988;11.068;2023-02-15T09:14:33;143.17;;;13.10;;
4274;SDS011;2151;50.988;11.068;2023-02-15T09:16:59;139.17;;;12.77;;
4274;SDS011;2151;50.988;11.068;2023-02-15T09:19:25;140.30;;;12.20;;
4274;SDS011;2151;50.988;11.068;2023-02-15T09:21:52;141.70;;;12.03;;
4274;SDS011;2151;50.988;11.068;2023-02-15T09:24:19;140.33;;;12.40;;
4274;SDS011;2151;50.988;11.068;2023-02-15T09:26:45;140.60;;;11.97;;
4274;SDS011;2151;50.988;11.068;2023-02-15T09:29:12;140.90;;;12.17;;
4274;SDS011;2151;50.988;11.068;2023-02-15T09:31:41;143.60;;;12.63;;
4274;SDS011;2151;50.988;11.068;2023-02-15T09:34:11;139.73;;;11.83;;
4274;SDS011;2151;50.988;11.068;2023-02-15T09:36:38;141.07;;;12.00;;
4274;SDS011;2151;50.988;11.068;2023-02-15T09:39:09;144.30;;;12.53;;
4274;SDS011;2151;50.988;11.068;2023-02-15T10:16:26;138.33;;;12.03;;
4274;SDS011;2151;50.988;11.068;2023-02-15T10:28:55;138.63;;;11.50;;
4274;SDS011;2151;50.988;11.068;2023-02-15T10:31:34;139.37;;;12.07;;
4274;SDS011;2151;50.988;11.068;2023-02-15T10:39:09;137.30;;;11.50;;
4274;SDS011;2151;50.988;11.068;2023-02-15T10:44:34;135.50;;;11.50;;
4274;SDS011;2151;50.988;11.068;2023-02-15T10:55:25;133.77;;;10.73;;
4274;SDS011;2151;50.988;11.068;2023-02-15T11:00:35;135.90;;;12.63;;
4274;SDS011;2151;50.988;11.068;2023-02-15T11:06:00;134.83;;;10.80;;
4274;SDS011;2151;50.988;11.068;2023-02-15T11:08:29;134.70;;;11.70;;
4274;SDS011;2151;50.988;11.068;2023-02-15T11:11:01;134.63;;;11.60;;
4274;SDS011;2151;50.988;11.068;2023-02-15T11:13:39;135.43;;;11.90;;
4274;SDS011;2151;50.988;11.068;2023-02-15T11:16:16;134.53;;;12.20;;
4274;SDS011;2151;50.988;11.068;2023-02-15T11:18:48;137.67;;;11.87;;
4274;SDS011;2151;50.988;11.068;2023-02-15T11:21:25;135.53;;;11.47;;
4274;SDS011;2151;50.988;11.068;2023-02-15T11:23:52;133.37;;;10.97;;
4274;SDS011;2151;50.988;11.068;2023-02-15T11:26:21;137.33;;;11.77;;
4274;SDS011;2151;50.988;11.068;2023-02-15T11:28:55;135.10;;;12.03;;
4274;SDS011;2151;50.988;11.068;2023-02-15T11:31:23;135.20;;;11.27;;
4274;SDS011;2151;50.988;11.068;2023-02-15T11:33:52;140.80;;;11.63;;
4274;SDS011;2151;50.988;11.068;2023-02-15T11:36:21;133.07;;;11.03;;
4274;SDS011;2151;50.988;11.068;2023-02-15T11:38:49;136.20;;;12.10;;
4274;SDS011;2151;50.988;11.068;2023-02-15T11:41:18;132.80;;;11.70;;
4274;SDS011;2151;50.988;11.068;2023-02-15T11:46:20;132.90;;;11.73;;
4274;SDS011;2151;50.988;11.068;2023-02-15T11:48:47;131.17;;;11.57;;
4274;SDS011;2151;50.988;11.068;2023-02-15T11:51:16;135.00;;;10.60;;
4274;SDS011;2151;50.988;11.068;2023-02-15T11:53:43;131.07;;;11.33;;
4274;SDS011;2151;50.988;11.068;2023-02-15T11:56:15;131.30;;;10.70;;
4274;SDS011;2151;50.988;11.068;2023-02-15T11:58:45;133.57;;;11.30;;
4274;SDS011;2151;50.988;11.068;2023-02-15T12:03:44;133.27;;;11.47;;
4274;SDS011;2151;50.988;11.068;2023-02-15T12:06:22;132.27;;;11.57;;
4274;SDS011;2151;50.988;11.068;2023-02-15T12:11:29;133.07;;;11.00;;
4274;SDS011;2151;50.988;11.068;2023-02-15T12:14:00;133.87;;;11.87;;
4274;SDS011;2151;50.988;11.068;2023-02-15T12:16:27;131.57;;;11.70;;
4274;SDS011;2151;50.988;11.068;2023-02-15T12:18:55;132.37;;;11.83;;
4274;SDS011;2151;50.988;11.068;2023-02-15T12:21:27;133.27;;;11.83;;
4274;SDS011;2151;50.988;11.068;2023-02-15T12:23:55;131.37;;;11.57;;
4274;SDS011;2151;50.988;11.068;2023-02-15T12:26:30;133.80;;;12.50;;
4274;SDS011;2151;50.988;11.068;2023-02-15T12:29:00;132.60;;;12.77;;
4274;SDS011;2151;50.988;11.068;2023-02-15T12:31:31;130.47;;;11.53;;
4274;SDS011;2151;50.988;11.068;2023-02-15T12:34:01;131.07;;;11.37;;
4274;SDS011;2151;50.988;11.068;2023-02-15T12:36:32;132.47;;;11.97;;
4274;SDS011;2151;50.988;11.068;2023-02-15T12:49:22;132.00;;;11.90;;
4274;SDS011;2151;50.988;11.068;2023-02-15T12:51:52;131.57;;;12.23;;
4274;SDS011;2151;50.988;11.068;2023-02-15T12:54:26;132.23;;;11.87;;
4274;SDS011;2151;50.988;11.068;2023-02-15T12:56:54;129.80;;;11.97;;
4274;SDS011;2151;50.988;11.068;2023-02-15T12:59:21;136.57;;;12.30;;
4274;SDS011;2151;50.988;11.068;2023-02-15T13:01:49;129.37;;;11.93;;
4274;SDS011;2151;50.988;11.068;2023-02-15T13:06:50;130.37;;;10.93;;
4274;SDS011;2151;50.988;11.068;2023-02-15T13:09:19;127.20;;;10.20;;
4274;SDS011;2151;50.988;11.068;2023-02-15T13:11:46;126.97;;;10.10;;
4274;SDS011;2151;50.988;11.068;2023-02-15T13:14:19;128.50;;;10.20;;
4274;SDS011;2151;50.988;11.068;2023-02-15T13:16:48;130.37;;;10.50;;
4274;SDS011;2151;50.988;11.068;2023-02-15T13:21:47;126.93;;;9.37;;
4274;SDS011;2151;50.988;11.068;2023-02-15T13:24:27;127.77;;;10.30;;
4274;SDS011;2151;50.988;11.068;2023-02-15T13:26:56;128.70;;;10.10;;
4274;SDS011;2151;50.988;11.068;2023-02-15T13:29:41;131.47;;;10.07;;
4274;SDS011;2151;50.988;11.068;2023-02-15T13:32:15;127.30;;;9.57;;
4274;SDS011;2151;50.988;11.068;2023-02-15T13:34:47;132.00;;;10.97;;
4274;SDS011;2151;50.988;11.068;2023-02-15T13:37:20;128.10;;;10.37;;
4274;SDS011;2151;50.988;11.068;2023-02-15T13:39:52;129.93;;;10.70;;
4274;SDS011;2151;50.988;11.068;2023-02-15T13:48:15;128.67;;;10.67;;
4274;SDS011;2151;50.988;11.068;2023-02-15T13:59:02;128.53;;;10.07;;
4274;SDS011;2151;50.988;11.068;2023-02-15T14:01:42;130.07;;;10.50;;
4274;SDS011;2151;50.988;11.068;2023-02-15T14:04:15;130.70;;;10.30;;
4274;SDS011;2151;50.988;11.068;2023-02-15T14:06:58;128.80;;;10.20;;
4274;SDS011;2151;50.988;11.068;2023-02-15T14:09:30;128.47;;;10.20;;
4274;SDS011;2151;50.988;11.068;2023-02-15T14:22:50;129.90;;;10.20;;
4274;SDS011;2151;50.988;11.068;2023-02-15T14:25:34;127.87;;;10.07;;
4274;SDS011;2151;50.988;11.068;2023-02-15T14:28:14;127.27;;;9.10;;
4274;SDS011;2151;50.988;11.068;2023-02-15T14:30:44;126.80;;;9.10;;
4274;SDS011;2151;50.988;11.068;2023-02-15T14:35:41;126.10;;;8.90;;
4274;SDS011;2151;50.988;11.068;2023-02-15T14:43:33;126.07;;;9.20;;
4274;SDS011;2151;50.988;11.068;2023-02-15T14:48:48;125.07;;;7.83;;
4274;SDS011;2151;50.988;11.068;2023-02-15T14:54:00;126.47;;;8.83;;
4274;SDS011;2151;50.988;11.068;2023-02-15T14:56:26;125.90;;;8.73;;
4274;SDS011;2151;50.988;11.068;2023-02-15T14:58:58;126.47;;;8.97;;
4274;SDS011;2151;50.988;11.068;2023-02-15T15:01:26;125.47;;;9.70;;
4274;SDS011;2151;50.988;11.068;2023-02-15T15:04:13;130.47;;;10.10;;
4274;SDS011;2151;50.988;11.068;2023-02-15T15:06:41;129.77;;;10.00;;
4274;SDS011;2151;50.988;11.068;2023-02-15T15:11:39;127.70;;;10.33;;
4274;SDS011;2151;50.988;11.068;2023-02-15T15:14:10;126.70;;;9.67;;
4274;SDS011;2151;50.988;11.068;2023-02-15T15:19:04;126.60;;;9.00;;
4274;SDS011;2151;50.988;11.068;2023-02-15T15:29:42;130.47;;;11.17;;
4274;SDS011;2151;50.988;11.068;2023-02-15T15:32:09;128.83;;;10.97;;
4274;SDS011;2151;50.988;11.068;2023-02-15T15:34:45;129.90;;;11.23;;
4274;SDS011;2151;50.988;11.068;2023-02-15T15:42:50;137.30;;;12.20;;
4274;SDS011;2151;50.988;11.068;2023-02-15T15:47:51;129.43;;;10.80;;
4274;SDS011;2151;50.988;11.068;2023-02-15T15:50:32;132.70;;;11.50;;
4274;SDS011;2151;50.988;11.068;2023-02-15T15:52:59;133.73;;;10.33;;
4274;SDS011;2151;50.988;11.068;2023-02-15T15:55:27;129.47;;;10.10;;
4274;SDS011;2151;50.988;11.068;2023-02-15T15:57:56;131.07;;;10.23;;
4274;SDS011;2151;50.988;11.068;2023-02-15T16:02:54;128.70;;;9.80;;
4274;SDS011;2151;50.988;11.068;2023-02-15T16:05:22;130.23;;;10.27;;
4274;SDS011;2151;50.988;11.068;2023-02-15T16:07:49;128.27;;;9.80;;
4274;SDS011;2151;50.988;11.068;2023-02-15T16:10:23;130.07;;;9.10;;
4274;SDS011;2151;50.988;11.068;2023-02-15T16:12:49;130.90;;;9.90;;
4274;SDS011;2151;50.988;11.068;2023-02-15T16:15:21;132.40;;;11.07;;
4274;SDS011;2151;50.988;11.068;2023-02-15T16:17:50;129.40;;;10.80;;
4274;SDS011;2151;50.988;11.068;2023-02-15T16:23:05;131.90;;;10.73;;
4274;SDS011;2151;50.988;11.068;2023-02-15T16:25:35;127.43;;;9.83;;
4274;SDS011;2151;50.988;11.068;2023-02-15T16:28:06;129.30;;;10.00;;
4274;SDS011;2151;50.988;11.068;2023-02-15T16:30:33;134.70;;;10.73;;
4274;SDS011;2151;50.988;11.068;2023-02-15T16:33:04;128.57;;;10.13;;
4274;SDS011;2151;50.988;11.068;2023-02-15T16:35:31;129.30;;;9.70;;
4274;SDS011;2151;50.988;11.068;2023-02-15T16:37:58;128.67;;;9.80;;
4274;SDS011;2151;50.988;11.068;2023-02-15T16:42:51;129.40;;;10.20;;
4274;SDS011;2151;50.988;11.068;2023-02-15T16:45:19;130.73;;;10.40;;
4274;SDS011;2151;50.988;11.068;2023-02-15T16:47:46;132.33;;;10.43;;
4274;SDS011;2151;50.988;11.068;2023-02-15T16:50:18;130.03;;;10.53;;
4274;SDS011;2151;50.988;11.068;2023-02-15T16:52:45;137.17;;;12.00;;
4274;SDS011;2151;50.988;11.068;2023-02-15T16:55:22;141.60;;;11.30;;
4274;SDS011;2151;50.988;11.068;2023-02-15T16:57:49;132.33;;;11.30;;
4274;SDS011;2151;50.988;11.068;2023-02-15T17:00:20;131.80;;;10.40;;
4274;SDS011;2151;50.988;11.068;2023-02-15T17:02:53;130.93;;;10.43;;
4274;SDS011;2151;50.988;11.068;2023-02-15T17:05:22;130.63;;;10.07;;
4274;SDS011;2151;50.988;11.068;2023-02-15T17:10:38;129.00;;;10.17;;
4274;SDS011;2151;50.988;11.068;2023-02-15T17:13:12;131.10;;;9.90;;
4274;SDS011;2151;50.988;11.068;2023-02-15T17:18:15;132.80;;;11.10;;
4274;SDS011;2151;50.988;11.068;2023-02-15T17:20:43;130.43;;;10.50;;
4274;SDS011;2151;50.988;11.068;2023-02-15T17:23:44;132.47;;;11.50;;
4274;SDS011;2151;50.988;11.068;2023-02-15T17:26:10;137.80;;;12.00;;
4274;SDS011;2151;50.988;11.068;2023-02-15T17:28:37;135.20;;;11.60;;
4274;SDS011;2151;50.988;11.068;2023-02-15T17:31:12;132.77;;;12.20;;
4274;SDS011;2151;50.988;11.068;2023-02-15T17:33:40;134.97;;;11.63;;
4274;SDS011;2151;50.988;11.068;2023-02-15T17:36:07;135.40;;;12.00;;
4274;SDS011;2151;50.988;11.068;2023-02-15T17:38:36;136.30;;;12.87;;
4274;SDS011;2151;50.988;11.068;2023-02-15T17:41:03;135.07;;;13.00;;
4274;SDS011;2151;50.988;11.068;2023-02-15T17:43:30;134.80;;;12.63;;
4274;SDS011;2151;50.988;11.068;2023-02-15T17:45:56;137.10;;;12.70;;
4274;SDS011;2151;50.988;11.068;2023-02-15T17:48:28;140.37;;;13.20;;
4274;SDS011;2151;50.988;11.068;2023-02-15T17:50:57;135.90;;;12.00;;
4274;SDS011;2151;50.988;11.068;2023-02-15T17:53:24;141.87;;;13.30;;
4274;SDS011;2151;50.988;11.068;2023-02-15T17:55:50;139.03;;;12.53;;
4274;SDS011;2151;50.988;11.068;2023-02-15T17:58:18;132.77;;;11.57;;
4274;SDS011;2151;50.988;11.068;2023-02-15T18:00:45;141.27;;;13.07;;
4274;SDS011;2151;50.988;11.068;2023-02-15T18:06:19;140.03;;;12.83;;
4274;SDS011;2151;50.988;11.068;2023-02-15T18:09:04;134.30;;;12.00;;